Time;durP1;ratioP1;P1;durP2;ratioP2;P2;SDS_P1;SDS_P2;PMS_P1;PMS_P2;Temp;Humidity;BMP_temperature;BMP_pressure;BME280_temperature;BME280_humidity;BME280_pressure;Samples;Min_cycle;Max_cycle;Signal;HPM_P1;HPM_P2
2023/01/18 00:01:35;;;;;;;2.55;2.38;;;;;;;0.92;69.76;98526.91;5114177;28;20034;-82
2023/01/18 00:04:06;;;;;;;0.93;0.93;;;;;;;0.88;69.58;98520.97;5122143;28;20023;-81
2023/01/18 00:06:37;;;;;;;2.28;2.05;;;;;;;0.82;70.50;98523.69;5122131;28;20043;-82
2023/01/18 00:09:07;;;;;;;4.57;3.95;;;;;;;0.88;70.25;98528.72;5138146;28;20045;-80
2023/01/18 00:11:40;;;;;;;3.67;2.70;;;;;;;0.87;70.14;98528.75;5108132;28;20062;-81
2023/01/18 00:14:10;;;;;;;0.47;0.47;;;;;;;0.84;69.22;98533.97;5118231;28;20122;-82
2023/01/18 00:16:41;;;;;;;1.33;1.33;;;;;;;0.81;70.29;98534.91;5138502;28;20058;-81
2023/01/18 00:19:12;;;;;;;1.80;1.70;;;;;;;0.81;70.13;98536.66;5129064;28;20070;-82
2023/01/18 00:21:43;;;;;;;1.08;0.98;;;;;;;0.78;70.49;98532.41;5132291;28;20051;-82
2023/01/18 00:24:13;;;;;;;1.88;1.77;;;;;;;0.80;70.27;98535.78;5119532;28;20031;-81
2023/01/18 00:26:44;;;;;;;2.10;2.00;;;;;;;0.74;70.18;98533.34;5136506;28;20045;-82
2023/01/18 00:29:15;;;;;;;1.67;1.58;;;;;;;0.77;69.67;98538.44;5141880;28;20090;-82
2023/01/18 00:31:46;;;;;;;0.52;0.52;;;;;;;0.75;69.76;98540.22;5101215;28;20938;-82
2023/01/18 00:34:16;;;;;;;2.50;1.30;;;;;;;0.72;70.05;98535.09;5106201;28;20113;-82
2023/01/18 00:36:47;;;;;;;0.95;0.95;;;;;;;0.76;69.98;98542.75;5138725;28;20090;-81
2023/01/18 00:39:18;;;;;;;2.08;1.98;;;;;;;0.74;69.90;98536.78;5113627;28;20745;-82
2023/01/18 00:44:38;;;;;;;2.30;2.13;;;;;;;0.77;70.65;98541.03;5148513;28;20047;-81
2023/01/18 00:47:08;;;;;;;3.85;2.38;;;;;;;0.73;70.21;98536.81;5130570;28;20050;-81
2023/01/18 00:49:39;;;;;;;1.67;1.58;;;;;;;0.63;70.70;98546.50;5137077;28;20042;-82
2023/01/18 00:52:09;;;;;;;2.55;2.40;;;;;;;0.69;70.76;98537.78;5135076;28;20023;-81
2023/01/18 00:54:40;;;;;;;0.55;0.55;;;;;;;0.71;70.10;98535.97;5149305;28;20035;-81
2023/01/18 00:57:11;;;;;;;6.97;3.83;;;;;;;0.69;70.53;98541.19;5129216;28;20058;-82
2023/01/18 00:59:41;;;;;;;1.60;1.50;;;;;;;0.62;70.83;98539.63;5142627;28;20038;-83
2023/01/18 01:02:13;;;;;;;1.33;1.30;;;;;;;0.65;70.36;98541.28;5138619;28;20038;-81
2023/01/18 01:07:32;;;;;;;2.47;2.35;;;;;;;0.65;70.67;98547.31;5140400;28;20065;-82
2023/01/18 01:10:08;;;;;;;3.30;3.10;;;;;;;0.64;70.40;98548.19;5117855;28;20320;-82
2023/01/18 01:26:43;;;;;;;1.05;1.05;;;;;;;0.53;70.33;98551.00;5128995;28;20039;-81
2023/01/18 01:29:14;;;;;;;3.72;3.22;;;;;;;0.56;70.25;98555.25;5125103;28;20170;-82
2023/01/18 01:31:45;;;;;;;3.75;3.45;;;;;;;0.56;70.51;98558.66;5140652;28;20039;-82
2023/01/18 01:34:15;;;;;;;1.95;1.85;;;;;;;0.55;70.51;98561.28;5131004;28;20098;-82
2023/01/18 01:36:48;;;;;;;1.65;1.58;;;;;;;0.43;69.81;98570.97;5122914;28;20034;-82
2023/01/18 01:39:19;;;;;;;1.85;1.75;;;;;;;0.46;70.08;98576.09;5146441;28;20049;-83
2023/01/18 01:41:49;;;;;;;1.08;0.98;;;;;;;0.43;70.17;98575.28;5143370;28;20113;-83
2023/01/18 01:44:20;;;;;;;0.68;0.68;;;;;;;0.45;69.90;98574.38;5150363;28;20454;-82
2023/01/18 01:47:06;;;;;;;0.75;0.75;;;;;;;0.47;70.11;98582.06;5126752;28;20077;-81
2023/01/18 01:49:48;;;;;;;0.80;0.80;;;;;;;0.47;70.17;98585.53;5125994;28;20031;-82
2023/01/18 01:52:24;;;;;;;2.38;2.05;;;;;;;0.42;70.60;98583.91;5122813;28;20423;-82
2023/01/18 01:55:25;;;;;;;1.75;1.65;;;;;;;0.42;70.16;98581.34;5118176;28;20069;-81
2023/01/18 01:58:08;;;;;;;1.85;1.75;;;;;;;0.36;70.26;98581.47;5146124;28;20042;-82
2023/01/18 02:00:38;;;;;;;25.77;2.92;;;;;;;0.34;70.49;98583.22;5138071;28;20035;-81
2023/01/18 02:03:11;;;;;;;2.05;1.90;;;;;;;0.31;70.40;98582.38;5124641;28;20050;-81
2023/01/18 02:05:46;;;;;;;1.05;1.05;;;;;;;0.40;69.92;98585.66;5141680;28;20046;-81
2023/01/18 02:08:21;;;;;;;0.85;0.85;;;;;;;0.33;70.54;98584.97;5111192;28;20902;-82
2023/01/18 02:10:51;;;;;;;1.67;1.58;;;;;;;0.28;71.15;98585.06;5126030;28;20449;-81
2023/01/18 02:13:24;;;;;;;7.65;4.15;;;;;;;0.31;70.53;98595.28;5126171;28;20039;-81
2023/01/18 02:16:09;;;;;;;0.43;0.43;;;;;;;0.28;71.10;98603.09;5140869;28;20066;-81
2023/01/18 02:19:01;;;;;;;0.80;0.80;;;;;;;0.34;70.50;98599.53;5101826;28;20494;-82
2023/01/18 02:21:52;;;;;;;1.13;1.13;;;;;;;0.37;70.15;98601.22;5122747;28;20144;-81
2023/01/18 02:24:56;;;;;;;0.95;0.95;;;;;;;0.35;70.94;98600.41;5110372;28;20145;-82
2023/01/18 02:27:42;;;;;;;2.03;1.00;;;;;;;0.36;70.60;98599.53;5121361;28;20065;-81
2023/01/18 02:30:22;;;;;;;0.50;0.50;;;;;;;0.36;70.76;98600.34;5121591;28;20027;-82
2023/01/18 02:33:08;;;;;;;0.73;0.73;;;;;;;0.31;71.02;98600.44;5123259;28;20047;-81
2023/01/18 02:35:52;;;;;;;0.32;0.32;;;;;;;0.31;71.17;98597.03;5118843;28;20031;-83
2023/01/18 02:38:36;;;;;;;;;;;;;;;0.30;71.16;98593.59;5109298;28;20614;-81
2023/01/18 02:41:18;;;;;;;1.58;1.55;;;;;;;0.34;70.83;98596.13;5138139;28;19969;-83
2023/01/18 02:46:45;;;;;;;11.77;2.97;;;;;;;0.33;71.03;98607.31;5136078;28;20039;-81
2023/01/18 02:49:26;;;;;;;0.70;0.70;;;;;;;0.28;71.30;98608.25;5124005;28;20050;-81
2023/01/18 02:52:05;;;;;;;1.77;1.67;;;;;;;0.31;70.64;98628.81;5120553;28;20050;-84
2023/01/18 02:54:38;;;;;;;0.40;0.40;;;;;;;0.35;70.87;98626.19;5122469;28;20041;-83
2023/01/18 02:57:13;;;;;;;;;;;;;;;0.34;70.64;98617.59;5120255;28;20043;-81
2023/01/18 02:59:48;;;;;;;1.40;1.30;;;;;;;0.33;70.63;98630.53;5137250;28;19928;-81
2023/01/18 03:02:23;;;;;;;0.90;0.90;;;;;;;0.34;70.53;98627.91;5115521;28;20071;-83
2023/01/18 03:04:54;;;;;;;4.47;2.90;;;;;;;0.34;70.31;98627.06;5103844;28;20509;-81
2023/01/18 03:07:31;;;;;;;2.58;2.47;;;;;;;0.34;70.45;98619.34;5136496;28;20038;-81
2023/01/18 03:10:05;;;;;;;4.70;4.22;;;;;;;0.29;69.67;98620.25;5146211;28;20038;-81
2023/01/18 03:12:58;;;;;;;1.95;1.85;;;;;;;0.27;70.03;98622.03;5098947;28;20053;-80
2023/01/18 03:15:35;;;;;;;1.15;1.15;;;;;;;0.27;70.48;98631.47;5135312;28;20060;-83
2023/01/18 03:18:16;;;;;;;4.28;3.70;;;;;;;0.28;69.83;98630.59;5140406;28;20035;-84
2023/01/18 03:20:54;;;;;;;1.23;1.23;;;;;;;0.19;70.32;98626.50;5137291;28;20058;-81
2023/01/18 03:23:36;;;;;;;1.58;1.17;;;;;;;0.16;70.78;98629.13;5138467;28;20061;-81
2023/01/18 03:26:07;;;;;;;1.95;1.85;;;;;;;0.12;71.09;98630.06;5118722;28;20042;-80
2023/01/18 03:34:36;;;;;;;1.33;1.25;;;;;;;0.19;70.56;98629.06;5132291;28;20030;-81
2023/01/18 03:37:11;;;;;;;2.38;0.98;;;;;;;0.14;70.46;98628.28;5119215;28;20486;-80
2023/01/18 03:39:50;;;;;;;1.75;1.65;;;;;;;0.19;70.98;98629.06;5110513;28;20404;-83
2023/01/18 03:42:31;;;;;;;0.93;0.88;;;;;;;0.20;70.31;98635.06;5117547;28;20042;-81
2023/01/18 03:45:09;;;;;;;1.98;1.88;;;;;;;0.22;70.57;98636.72;5126109;28;20035;-82
2023/01/18 03:47:40;;;;;;;2.78;2.63;;;;;;;0.17;70.81;98646.28;5100376;28;20042;-83
2023/01/18 03:50:10;;;;;;;0.68;0.68;;;;;;;0.15;70.88;98646.31;5116399;28;20025;-82
2023/01/18 03:52:45;;;;;;;8.80;1.67;;;;;;;0.10;71.06;98655.03;5102881;28;20051;-82
2023/01/18 03:55:26;;;;;;;0.47;0.47;;;;;;;0.07;70.60;98655.94;5102812;28;20627;-83
2023/01/18 03:58:06;;;;;;;1.75;1.65;;;;;;;0.04;70.94;98657.72;5105479;28;20053;-84
2023/01/18 04:00:38;;;;;;;0.50;0.50;;;;;;;0.04;71.28;98665.44;5108759;28;20711;-82
2023/01/18 04:03:09;;;;;;;0.98;0.98;;;;;;;0.05;71.21;98667.13;5104314;28;20043;-82
2023/01/18 04:05:39;;;;;;;2.00;1.90;;;;;;;0.07;70.92;98653.34;5097889;28;20202;-81
2023/01/18 04:08:10;;;;;;;0.73;0.73;;;;;;;-0.09;71.32;98665.66;5114739;28;20039;-81
2023/01/18 04:10:40;;;;;;;0.80;0.80;;;;;;;-0.07;71.16;98668.19;5136922;28;20089;-82
2023/01/18 04:13:11;;;;;;;1.20;1.08;;;;;;;-0.02;70.75;98672.41;5136533;28;20058;-81
2023/01/18 04:15:41;;;;;;;5.68;4.45;;;;;;;0.01;70.44;98678.38;5136662;28;20059;-83
2023/01/18 04:18:14;;;;;;;2.25;2.15;;;;;;;0.01;70.99;98680.97;5124677;28;20034;-81
2023/01/18 04:20:45;;;;;;;1.75;1.65;;;;;;;-0.02;70.86;98677.56;5105526;28;20651;-81
2023/01/18 04:23:15;;;;;;;9.25;3.17;;;;;;;-0.06;71.50;98680.19;5131646;28;20027;-84
2023/01/18 04:25:48;;;;;;;1.48;1.35;;;;;;;-0.02;70.98;98685.28;5104302;28;20695;-81
2023/01/18 04:28:24;;;;;;;0.57;0.57;;;;;;;-0.01;70.97;98684.41;5121916;28;20039;-81
2023/01/18 04:30:55;;;;;;;0.40;0.40;;;;;;;-0.01;71.22;98684.41;5134044;28;20050;-81
2023/01/18 04:33:26;;;;;;;1.70;1.60;;;;;;;0.02;71.22;98687.81;5115250;28;20026;-83
2023/01/18 04:35:56;;;;;;;1.75;1.65;;;;;;;-0.01;70.97;98697.31;5131613;28;21002;-82
2023/01/18 04:38:27;;;;;;;4.22;3.80;;;;;;;-0.02;71.18;98703.34;5132207;28;20094;-83
2023/01/18 04:41:05;;;;;;;1.15;1.15;;;;;;;-0.03;71.17;98701.63;5101870;28;20804;-83
2023/01/18 04:43:35;;;;;;;1.50;1.40;;;;;;;0.00;70.79;98705.91;5115090;28;20041;-82
2023/01/18 04:46:06;;;;;;;0.68;0.68;;;;;;;-0.11;71.03;98707.81;5120087;28;20035;-82
2023/01/18 04:48:36;;;;;;;1.45;1.45;;;;;;;-0.12;70.83;98712.09;5105478;28;20042;-83
2023/01/18 04:51:11;;;;;;;0.30;0.30;;;;;;;-0.08;70.72;98718.06;5116956;28;20524;-83
2023/01/18 04:53:43;;;;;;;10.77;3.00;;;;;;;-0.10;71.27;98712.91;5143399;28;20035;-80
2023/01/18 04:56:14;;;;;;;0.85;0.85;;;;;;;-0.09;70.82;98712.03;5124691;28;20122;-82
2023/01/18 04:58:45;;;;;;;1.63;1.30;;;;;;;-0.09;70.91;98714.63;5123818;28;20130;-82
2023/01/18 05:01:15;;;;;;;0.47;0.47;;;;;;;-0.08;70.74;98718.91;5126164;28;20671;-82
2023/01/18 05:03:46;;;;;;;1.20;1.20;;;;;;;-0.11;71.13;98724.09;5125953;28;20039;-81
2023/01/18 05:06:18;;;;;;;1.30;1.30;;;;;;;-0.10;70.67;98725.81;5128957;28;20042;-82
2023/01/18 05:08:49;;;;;;;2.50;2.30;;;;;;;-0.12;71.20;98734.44;5124985;28;20409;-83
2023/01/18 05:11:22;;;;;;;2.60;2.50;;;;;;;-0.17;71.46;98737.09;5124773;28;20074;-82
2023/01/18 05:13:52;;;;;;;4.15;3.38;;;;;;;-0.15;70.99;98737.94;5128335;28;20035;-83
2023/01/18 05:16:23;;;;;;;0.40;0.40;;;;;;;-0.14;71.46;98731.91;5119954;28;20043;-84
2023/01/18 05:18:53;;;;;;;1.33;1.23;;;;;;;-0.20;71.05;98743.16;5141307;28;20031;-84
2023/01/18 05:21:24;;;;;;;0.52;0.52;;;;;;;-0.17;71.27;98742.25;5130264;28;20054;-85
2023/01/18 05:23:54;;;;;;;0.63;0.63;;;;;;;-0.17;71.00;98749.97;5124378;28;20126;-83
2023/01/18 05:26:25;;;;;;;0.98;0.98;;;;;;;-0.15;70.80;98737.94;5145631;28;20046;-80
2023/01/18 05:28:56;;;;;;;0.60;0.60;;;;;;;-0.11;71.33;98749.88;5137317;28;20039;-85
2023/01/18 05:31:27;;;;;;;1.98;1.88;;;;;;;-0.09;71.10;98752.47;5125826;28;20035;-81
2023/01/18 05:33:57;;;;;;;0.63;0.63;;;;;;;-0.08;71.23;98754.16;5128769;28;20027;-83
2023/01/18 05:36:28;;;;;;;0.40;0.40;;;;;;;-0.11;71.39;98761.94;5140122;28;20035;-82
2023/01/18 05:38:58;;;;;;;1.70;1.60;;;;;;;-0.10;71.08;98761.06;5128038;28;20054;-84
2023/01/18 05:41:29;;;;;;;1.58;1.50;;;;;;;-0.09;70.55;98768.75;5138077;28;20043;-82
2023/01/18 05:43:59;;;;;;;0.45;0.45;;;;;;;-0.07;71.26;98763.56;5148143;28;20090;-83
2023/01/18 05:46:30;;;;;;;1.15;1.08;;;;;;;-0.06;71.14;98767.88;5127065;28;20218;-81
2023/01/18 05:49:00;;;;;;;1.63;1.55;;;;;;;-0.03;70.66;98768.66;5119137;28;20035;-81
2023/01/18 05:51:31;;;;;;;2.10;2.00;;;;;;;-0.03;71.02;98778.16;5128006;28;20044;-81
2023/01/18 05:54:02;;;;;;;3.45;3.13;;;;;;;-0.08;71.22;98785.94;5130694;28;20050;-81
2023/01/18 05:56:33;;;;;;;0.77;0.77;;;;;;;-0.04;70.98;98789.31;5104565;28;20045;-81
2023/01/18 05:59:04;;;;;;;0.77;0.77;;;;;;;-0.06;71.26;98788.50;5117127;28;20039;-81
2023/01/18 06:01:35;;;;;;;0.50;0.50;;;;;;;-0.06;71.26;98801.38;5125350;28;20183;-81
2023/01/18 06:04:05;;;;;;;1.48;1.40;;;;;;;-0.06;71.41;98797.09;5129646;29;20036;-80
2023/01/18 06:06:36;;;;;;;1.10;1.10;;;;;;;-0.07;71.02;98800.53;5126736;28;20039;-82
2023/01/18 06:09:06;;;;;;;1.30;1.30;;;;;;;-0.07;71.42;98808.28;5134294;28;20051;-80
2023/01/18 06:11:37;;;;;;;3.15;2.90;;;;;;;-0.08;71.18;98811.72;5120659;28;20038;-81
2023/01/18 06:14:07;;;;;;;1.25;1.25;;;;;;;-0.09;70.88;98814.34;5134950;28;20503;-81
2023/01/18 06:16:38;;;;;;;26.00;4.53;;;;;;;-0.08;70.72;98816.88;5120349;29;20039;-81
2023/01/18 06:19:08;;;;;;;0.80;0.80;;;;;;;-0.12;71.48;98820.38;5138675;28;20031;-81
2023/01/18 06:21:39;;;;;;;1.08;1.08;;;;;;;-0.09;70.86;98829.81;5107886;29;20047;-80
2023/01/18 06:24:09;;;;;;;2.13;2.03;;;;;;;-0.07;70.44;98828.91;5121869;29;20042;-81
2023/01/18 06:26:40;;;;;;;0.50;0.50;;;;;;;-0.10;70.87;98828.94;5134029;28;20035;-80
2023/01/18 06:29:10;;;;;;;6.25;2.55;;;;;;;-0.20;70.95;98832.50;5106682;29;20020;-81
2023/01/18 06:31:41;;;;;;;1.08;1.08;;;;;;;-0.25;71.00;98827.44;5116756;28;20159;-80
2023/01/18 06:34:11;;;;;;;0.52;0.52;;;;;;;-0.16;71.22;98832.44;5120965;29;20043;-81
2023/01/18 06:36:43;;;;;;;1.00;1.00;;;;;;;-0.19;71.01;98834.22;5133185;28;20059;-81
2023/01/18 06:39:14;;;;;;;1.27;1.27;;;;;;;-0.22;71.25;98836.84;5128584;28;20126;-80
2023/01/18 06:41:44;;;;;;;0.60;0.60;;;;;;;-0.17;70.91;98837.63;5130329;28;20668;-82
2023/01/18 06:44:15;;;;;;;0.50;0.50;;;;;;;-0.17;71.30;98842.78;5105407;29;20035;-81
2023/01/18 06:46:46;;;;;;;0.95;0.95;;;;;;;-0.20;71.52;98843.69;5116258;28;20039;-82
2023/01/18 06:49:16;;;;;;;1.83;0.98;;;;;;;-0.27;71.48;98843.78;5113016;28;20023;-81
2023/01/18 06:51:47;;;;;;;0.80;0.80;;;;;;;-0.23;71.72;98848.03;5098774;29;20053;-81
2023/01/18 06:54:17;;;;;;;0.98;0.98;;;;;;;-0.17;71.17;98853.97;5133081;28;20050;-81
2023/01/18 06:56:48;;;;;;;1.17;1.17;;;;;;;-0.16;71.57;98859.97;5107213;29;20036;-80
2023/01/18 06:59:18;;;;;;;2.28;0.98;;;;;;;-0.20;71.85;98868.59;5105045;29;20031;-79
2023/01/18 07:01:49;;;;;;;1.45;1.35;;;;;;;-0.17;71.63;98873.72;5139574;28;20055;-81
2023/01/18 07:04:19;;;;;;;1.85;1.75;;;;;;;-0.13;71.35;98870.25;5118979;28;20024;-81
2023/01/18 07:06:50;;;;;;;0.50;0.50;;;;;;;-0.13;71.40;98871.94;5120525;28;20087;-80
2023/01/18 07:09:20;;;;;;;1.30;1.30;;;;;;;-0.14;71.52;98873.69;5138576;28;20300;-81
2023/01/18 07:11:51;;;;;;;1.15;1.15;;;;;;;-0.13;71.70;98884.84;5123374;28;20046;-81
2023/01/18 07:14:21;;;;;;;0.50;0.50;;;;;;;-0.14;71.51;98878.84;5142919;28;20035;-80
2023/01/18 07:16:52;;;;;;;1.48;1.40;;;;;;;-0.14;71.49;98888.28;5133138;28;20062;-82
2023/01/18 07:19:22;;;;;;;0.85;0.85;;;;;;;-0.20;71.68;98899.53;5120458;28;20035;-81
2023/01/18 07:21:53;;;;;;;1.63;1.58;;;;;;;-0.20;72.03;98896.94;5102202;28;20105;-82
2023/01/18 07:24:23;;;;;;;0.47;0.47;;;;;;;-0.20;71.42;98902.09;5127865;28;20031;-79
2023/01/18 07:26:54;;;;;;;2.25;2.15;;;;;;;-0.23;71.38;98909.91;5120674;28;20035;-79
2023/01/18 07:29:25;;;;;;;0.50;0.50;;;;;;;-0.24;71.39;98918.50;5102751;28;20035;-80
2023/01/18 07:31:55;;;;;;;8.07;2.80;;;;;;;-0.22;71.46;98914.19;5134784;28;20219;-79
2023/01/18 07:34:25;;;;;;;1.52;1.48;;;;;;;-0.25;71.64;98917.66;5132771;28;20058;-81
2023/01/18 07:36:56;;;;;;;0.80;0.80;;;;;;;-0.20;71.87;98925.31;5134112;28;20038;-81
2023/01/18 07:39:26;;;;;;;0.65;0.65;;;;;;;-0.22;71.76;98930.47;5122055;28;20031;-82
2023/01/18 07:41:57;;;;;;;0.40;0.40;;;;;;;-0.18;71.45;98929.59;5128086;28;20105;-81
2023/01/18 07:44:28;;;;;;;0.60;0.60;;;;;;;-0.22;71.68;98942.53;5103107;28;20602;-81
2023/01/18 07:46:59;;;;;;;1.20;1.20;;;;;;;-0.21;71.88;98944.25;5130322;28;20039;-81
2023/01/18 07:49:29;;;;;;;1.08;0.98;;;;;;;-0.20;71.86;98941.63;5123605;28;20058;-81
2023/01/18 07:52:00;;;;;;;1.35;1.35;;;;;;;-0.22;71.84;98943.38;5110830;28;20058;-81
2023/01/18 07:54:30;;;;;;;2.13;2.03;;;;;;;-0.21;71.57;98949.41;5122665;28;20038;-81
2023/01/18 07:57:01;;;;;;;0.90;0.90;;;;;;;-0.22;71.12;98945.13;5132751;28;20035;-81
2023/01/18 07:59:32;;;;;;;0.98;0.98;;;;;;;-0.16;71.15;98947.59;5152172;28;20031;-81
2023/01/18 08:02:03;;;;;;;0.30;0.30;;;;;;;-0.21;71.42;98947.66;5104965;28;20277;-81
2023/01/18 08:04:33;;;;;;;6.60;4.18;;;;;;;-0.20;71.95;98949.38;5138255;28;20667;-82
2023/01/18 08:07:04;;;;;;;0.75;0.70;;;;;;;-0.21;71.59;98957.97;5122018;28;20473;-81
2023/01/18 08:09:35;;;;;;;0.52;0.52;;;;;;;-0.20;71.33;98959.69;5122971;28;20030;-81
2023/01/18 08:12:06;;;;;;;1.80;1.70;;;;;;;-0.18;71.41;98965.69;5113390;28;20550;-81
2023/01/18 08:14:37;;;;;;;1.10;1.10;;;;;;;-0.17;71.56;98961.38;5118583;28;20742;-82
2023/01/18 08:17:07;;;;;;;0.95;0.95;;;;;;;-0.16;71.55;98969.06;5101249;28;20043;-81
2023/01/18 08:19:38;;;;;;;1.23;1.23;;;;;;;-0.14;71.57;98968.22;5114231;28;20027;-81
2023/01/18 08:22:08;;;;;;;1.55;1.50;;;;;;;-0.15;71.55;98975.09;5111956;28;20058;-81
2023/01/18 08:24:39;;;;;;;1.95;1.45;;;;;;;-0.15;71.63;98975.09;5113548;29;20066;-80
2023/01/18 08:27:09;;;;;;;1.38;1.38;;;;;;;-0.19;71.81;98973.41;5117149;28;20039;-81
2023/01/18 08:29:40;;;;;;;1.30;1.25;;;;;;;-0.14;71.52;98981.97;5114464;28;20031;-81
2023/01/18 08:32:10;;;;;;;1.15;1.15;;;;;;;-0.16;71.68;98983.69;5111242;28;20066;-81
2023/01/18 08:34:41;;;;;;;2.33;2.22;;;;;;;-0.12;71.46;98994.84;5129869;28;20043;-81
2023/01/18 08:37:11;;;;;;;0.40;0.40;;;;;;;-0.12;71.55;99000.81;5113673;28;20035;-81
2023/01/18 08:39:42;;;;;;;0.75;0.75;;;;;;;-0.11;71.26;99005.13;5129382;28;20046;-81
2023/01/18 08:42:12;;;;;;;0.85;0.85;;;;;;;-0.12;71.56;99012.88;5118470;28;20066;-81
2023/01/18 08:44:43;;;;;;;1.10;1.10;;;;;;;-0.16;71.70;99004.31;5106435;29;20039;-81
2023/01/18 08:47:14;;;;;;;0.73;0.73;;;;;;;-0.20;71.60;99011.25;5130388;28;20043;-86
2023/01/18 08:49:45;;;;;;;0.77;0.77;;;;;;;-0.13;71.35;99024.94;5101961;29;20035;-83
2023/01/18 08:52:16;;;;;;;0.73;0.73;;;;;;;-0.13;71.76;99024.94;5102540;29;20031;-86
2023/01/18 08:54:46;;;;;;;0.50;0.50;;;;;;;-0.15;71.75;99026.66;5117650;28;20090;-84
2023/01/18 08:57:17;;;;;;;2.15;1.48;;;;;;;-0.11;71.79;99036.06;5107180;28;20042;-82
2023/01/18 08:59:47;;;;;;;3.70;2.35;;;;;;;-0.15;71.78;99031.81;5128116;28;20065;-82
2023/01/18 09:02:18;;;;;;;2.15;2.05;;;;;;;-0.13;71.85;99039.53;5112132;29;20059;-81
2023/01/18 09:04:48;;;;;;;2.25;2.15;;;;;;;-0.14;71.97;99041.25;5115030;28;20031;-81
2023/01/18 09:07:19;;;;;;;3.42;2.05;;;;;;;-0.15;72.53;99039.56;5127359;28;20031;-82
2023/01/18 09:09:50;;;;;;;1.75;1.65;;;;;;;-0.21;72.71;99037.88;5131048;28;20098;-83
2023/01/18 09:12:20;;;;;;;0.50;0.50;;;;;;;-0.16;72.51;99053.31;5129646;28;20089;-83
2023/01/18 09:14:51;;;;;;;0.52;0.52;;;;;;;-0.17;73.42;99054.16;5128456;28;20054;-79
2023/01/18 09:17:21;;;;;;;0.90;0.90;;;;;;;-0.13;73.68;99055.00;5127049;28;20039;-80
2023/01/18 09:19:53;;;;;;;4.38;1.48;;;;;;;-0.19;74.90;99055.91;5112170;28;20070;-80
2023/01/18 09:22:23;;;;;;;1.33;1.33;;;;;;;-0.12;73.90;99062.69;5110825;28;20067;-80
2023/01/18 09:24:54;;;;;;;0.50;0.50;;;;;;;-0.14;74.99;99063.59;5109044;28;20094;-80
2023/01/18 09:27:24;;;;;;;2.17;1.95;;;;;;;-0.15;75.14;99075.66;5098813;28;20653;-80
2023/01/18 09:29:55;;;;;;;0.60;0.60;;;;;;;-0.18;75.74;99065.34;5107596;28;20489;-80
2023/01/18 09:32:26;;;;;;;0.93;0.93;;;;;;;-0.10;75.20;99073.03;5112086;28;20822;-80
2023/01/18 09:34:56;;;;;;;2.33;2.08;;;;;;;-0.04;74.62;99078.94;5115743;29;20047;-80
2023/01/18 09:37:27;;;;;;;2.20;2.00;;;;;;;-0.13;75.64;99081.66;5095888;29;20082;-80
2023/01/18 09:39:59;;;;;;;2.60;1.23;;;;;;;-0.01;75.54;99085.81;5112811;28;20054;-80
2023/01/18 09:42:37;;;;;;;5.05;3.72;;;;;;;-0.11;75.27;99077.31;5107832;29;20059;-80
2023/01/18 09:45:21;;;;;;;0.60;0.60;;;;;;;-0.09;75.74;99091.03;5096067;29;20098;-80
2023/01/18 09:47:59;;;;;;;1.02;1.02;;;;;;;0.07;74.86;99094.34;5128746;28;20031;-79
2023/01/18 09:50:37;;;;;;;1.20;1.20;;;;;;;-0.01;75.73;99090.97;5115520;28;20031;-80
2023/01/18 09:53:27;;;;;;;3.80;2.83;;;;;;;0.02;75.17;99098.66;5102140;29;20062;-79
2023/01/18 09:55:58;;;;;;;0.82;0.82;;;;;;;0.14;75.10;99097.69;5129170;28;20053;-80
2023/01/18 09:59:05;;;;;;;1.52;1.48;;;;;;;0.11;75.25;99100.31;5104255;29;20039;-80
2023/01/18 10:01:36;;;;;;;1.20;1.20;;;;;;;0.03;76.22;99108.13;5117140;28;20047;-80
2023/01/18 10:04:16;;;;;;;2.45;2.25;;;;;;;0.13;75.17;99107.16;5135077;28;20030;-79
2023/01/18 10:07:02;;;;;;;0.88;0.88;;;;;;;0.15;75.67;99109.72;5131508;28;20047;-80
2023/01/18 10:09:47;;;;;;;3.85;3.10;;;;;;;0.20;75.67;99113.13;5130073;29;20058;-79
2023/01/18 10:12:39;;;;;;;0.30;0.30;;;;;;;0.20;75.69;99113.13;5100485;29;20110;-80
2023/01/18 10:15:16;;;;;;;0.77;0.77;;;;;;;0.23;75.53;99118.22;5094262;28;20146;-79
2023/01/18 10:17:50;;;;;;;0.45;0.45;;;;;;;0.18;75.93;99114.84;5109236;29;20126;-79
2023/01/18 10:20:39;;;;;;;0.40;0.40;;;;;;;0.23;75.34;99107.91;5115799;29;20044;-79
2023/01/18 10:23:27;;;;;;;1.10;1.10;;;;;;;0.21;75.80;99112.22;5128406;28;20135;-80
2023/01/18 10:26:11;;;;;;;0.82;0.82;;;;;;;0.31;75.53;99116.41;5102247;28;20059;-79
2023/01/18 10:29:21;;;;;;;1.02;1.02;;;;;;;0.27;76.45;99121.63;5101485;29;20039;-80
2023/01/18 10:32:06;;;;;;;0.88;0.88;;;;;;;0.35;76.06;99124.97;5110187;29;20522;-80
2023/01/18 10:34:43;;;;;;;0.95;0.95;;;;;;;0.36;76.03;99120.69;5110431;28;20113;-80
2023/01/18 10:37:44;;;;;;;0.77;0.77;;;;;;;0.34;75.99;99123.25;5112486;28;20043;-80
2023/01/18 10:40:14;;;;;;;0.57;0.57;;;;;;;0.30;76.18;99126.75;5113971;28;20044;-80
2023/01/18 10:42:47;;;;;;;0.40;0.40;;;;;;;0.29;76.21;99130.22;5125090;28;20039;-80
2023/01/18 10:45:21;;;;;;;0.77;0.77;;;;;;;0.37;76.02;99132.72;5099798;29;20031;-80
2023/01/18 10:47:54;;;;;;;1.23;1.23;;;;;;;0.33;75.88;99131.03;5114321;28;20071;-80
2023/01/18 10:50:36;;;;;;;0.90;0.90;;;;;;;0.39;75.62;99139.56;5111187;28;20039;-80
2023/01/18 10:53:22;;;;;;;0.45;0.45;;;;;;;0.36;75.71;99137.00;5097556;29;20047;-80
2023/01/18 10:56:15;;;;;;;0.70;0.70;;;;;;;0.33;76.25;99143.94;5079592;28;20043;-80
2023/01/18 10:58:56;;;;;;;1.02;1.02;;;;;;;0.35;76.20;99144.78;5104815;28;20082;-80
2023/01/18 11:01:50;;;;;;;0.63;0.63;;;;;;;0.28;76.69;99138.81;5119261;28;20046;-80
2023/01/18 11:04:25;;;;;;;0.40;0.40;;;;;;;0.35;75.72;99140.47;5130213;28;20042;-80
2023/01/18 11:06:59;;;;;;;0.95;0.90;;;;;;;0.37;75.92;99143.03;5133123;28;20049;-80
2023/01/18 11:09:54;;;;;;;0.88;0.88;;;;;;;0.39;75.83;99147.31;5104993;28;20517;-80
2023/01/18 11:12:36;;;;;;;0.63;0.63;;;;;;;0.34;76.10;99148.22;5135072;28;20130;-79
2023/01/18 11:15:12;;;;;;;0.82;0.82;;;;;;;0.38;76.29;99149.88;5122070;28;20882;-79
2023/01/18 11:17:45;;;;;;;0.63;0.63;;;;;;;0.41;76.71;99155.91;5133251;28;20045;-79
2023/01/18 11:20:22;;;;;;;2.28;2.08;;;;;;;0.49;76.23;99155.78;5138980;28;20616;-78
2023/01/18 11:23:01;;;;;;;0.85;0.85;;;;;;;0.54;76.31;99158.31;5121638;28;20039;-80
2023/01/18 11:25:39;;;;;;;0.57;0.57;;;;;;;0.60;75.69;99156.53;5109745;28;20035;-79
2023/01/18 11:28:18;;;;;;;2.53;1.58;;;;;;;0.56;75.68;99157.44;5135306;28;20709;-79
2023/01/18 11:30:54;;;;;;;0.30;0.30;;;;;;;0.66;76.11;99154.75;5137560;28;20371;-80
2023/01/18 11:33:26;;;;;;;1.05;1.05;;;;;;;0.70;76.93;99146.94;5139780;28;20097;-80
2023/01/18 11:36:00;;;;;;;0.63;0.63;;;;;;;0.72;76.65;99154.66;5114084;28;20110;-79
2023/01/18 11:38:32;;;;;;;;;;;;;;;0.82;76.65;99158.00;5119839;28;20544;-79
2023/01/18 11:41:22;;;;;;;0.98;0.98;;;;;;;0.89;76.54;99159.63;5117285;28;21055;-80
2023/01/18 11:44:05;;;;;;;0.50;0.50;;;;;;;1.05;75.31;99162.84;5106835;28;20085;-78
2023/01/18 11:46:42;;;;;;;0.75;0.75;;;;;;;1.06;75.87;99155.13;5135161;28;20746;-81
2023/01/18 11:49:12;;;;;;;1.05;1.05;;;;;;;1.11;74.96;99149.88;5137846;28;20761;-80
2023/01/18 11:52:04;;;;;;;0.50;0.50;;;;;;;1.22;74.96;99153.16;5118127;28;20041;-80
2023/01/18 11:54:42;;;;;;;0.55;0.55;;;;;;;1.44;75.15;99154.56;5143576;28;20042;-81
2023/01/18 11:57:13;;;;;;;1.88;1.77;;;;;;;1.40;75.25;99152.06;5137565;28;20294;-80
2023/01/18 11:59:45;;;;;;;0.40;0.40;;;;;;;1.48;74.50;99153.66;5133828;28;20065;-80
2023/01/18 12:02:57;;;;;;;0.90;0.90;;;;;;;1.56;74.01;99149.22;5128732;28;20043;-81
2023/01/18 12:06:35;;;;;;;0.40;0.40;;;;;;;1.68;74.16;99150.78;5116314;28;20035;-80
2023/01/18 12:09:20;;;;;;;0.30;0.30;;;;;;;1.83;73.44;99150.50;5045965;29;20054;-81
2023/01/18 12:11:57;;;;;;;0.82;0.82;;;;;;;1.86;73.24;99153.03;5067717;29;20620;-80
2023/01/18 12:14:46;;;;;;;0.68;0.68;;;;;;;1.91;71.99;99150.38;5129337;28;20410;-80
2023/01/18 12:17:27;;;;;;;0.30;0.30;;;;;;;2.03;72.10;99159.66;5132289;28;20062;-80
2023/01/18 12:20:15;;;;;;;0.50;0.50;;;;;;;2.05;71.61;99160.47;5120367;28;20149;-80
2023/01/18 12:23:02;;;;;;;0.40;0.40;;;;;;;2.22;71.39;99159.34;5104180;28;20061;-80
2023/01/18 12:25:50;;;;;;;0.45;0.45;;;;;;;2.26;71.39;99155.81;5108462;28;20157;-80
2023/01/18 12:28:56;;;;;;;0.40;0.40;;;;;;;2.31;71.57;99162.63;5135948;28;20031;-81
2023/01/18 12:31:38;;;;;;;0.60;0.60;;;;;;;2.35;70.45;99160.84;5125068;28;20034;-80
2023/01/18 12:34:21;;;;;;;2.88;2.17;;;;;;;2.40;70.54;99160.75;5112869;28;20035;-81
2023/01/18 12:37:24;;;;;;;0.57;0.57;;;;;;;2.43;70.19;99158.97;5133117;28;20069;-81
2023/01/18 12:40:20;;;;;;;0.37;0.37;;;;;;;2.50;69.26;99160.53;5130194;28;20039;-81
2023/01/18 12:43:09;;;;;;;1.45;0.93;;;;;;;2.57;68.72;99165.59;5134030;28;20298;-80
2023/01/18 12:45:44;;;;;;;0.32;0.32;;;;;;;2.64;68.73;99162.88;5135224;28;20117;-80